Time;durP1;ratioP1;P1;durP2;ratioP2;P2;SDS_P1;SDS_P2;PMS_P1;PMS_P2;Temp;Humidity;BMP_temperature;BMP_pressure;BME280_temperature;BME280_humidity;BME280_pressure;Samples;Min_cycle;Max_cycle;Signal;HPM_P1;HPM_P2
2021/12/11 00:01:43;;;;;;;51.25;17.60;;;-0.50;99.90;;;;;;6221128;23;20043;-90
2021/12/11 00:04:13;;;;;;;;;;;-0.50;99.90;;;;;;6221727;23;20070;-90
2021/12/11 00:06:49;;;;;;;18.25;13.77;;;-0.60;99.90;;;;;;6221152;23;19917;-90
2021/12/11 00:09:17;;;;;;;34.45;17.42;;;-0.60;99.90;;;;;;6220904;23;20078;-90
2021/12/11 00:11:49;;;;;;;37.65;15.40;;;-0.60;99.90;;;;;;6221013;23;20016;-88
2021/12/11 00:14:16;;;;;;;21.10;14.32;;;-0.70;99.90;;;;;;6222481;23;20020;-89
2021/12/11 00:16:43;;;;;;;27.95;14.32;;;-0.80;99.90;;;;;;6220994;23;20009;-89
2021/12/11 00:19:31;;;;;;;86.65;16.92;;;-0.80;99.90;;;;;;6220487;23;20469;-88
2021/12/11 00:22:27;;;;;;;132.50;18.35;;;-0.80;99.90;;;;;;6221790;23;20095;-94
2021/12/11 00:25:05;;;;;;;28.50;13.93;;;-0.80;99.90;;;;;;6220130;23;20449;-89
2021/12/11 00:27:33;;;;;;;17.65;13.38;;;-0.90;99.90;;;;;;6221084;23;20048;-88
2021/12/11 00:30:00;;;;;;;23.15;16.77;;;-0.90;99.90;;;;;;6220904;23;20023;-89
2021/12/11 00:32:32;;;;;;;47.60;25.38;;;-0.90;99.90;;;;;;6220577;23;20020;-88
2021/12/11 00:35:12;;;;;;;31.05;16.85;;;-0.90;99.90;;;;;;6220424;23;20438;-92
2021/12/11 00:37:38;;;;;;;46.90;17.98;;;-0.90;99.90;;;;;;6220312;23;20070;-89
2021/12/11 00:40:15;;;;;;;35.92;18.63;;;-1.00;99.90;;;;;;6220898;23;20020;-89
2021/12/11 00:42:47;;;;;;;30.50;18.90;;;-1.20;99.90;;;;;;6220337;23;20012;-94
2021/12/11 00:45:17;;;;;;;25.92;17.45;;;-1.20;99.90;;;;;;6249615;23;20058;-88
2021/12/11 00:47:50;;;;;;;24.80;16.75;;;-1.20;99.90;;;;;;6220787;23;20055;-90
2021/12/11 00:50:19;;;;;;;26.42;16.88;;;-1.20;99.90;;;;;;6220494;23;20023;-88
2021/12/11 00:52:52;;;;;;;23.63;16.17;;;-1.20;99.90;;;;;;6220194;23;20364;-88
2021/12/11 00:55:50;;;;;;;26.08;18.00;;;-1.20;99.90;;;;;;6220356;23;20380;-88
2021/12/11 00:58:27;;;;;;;23.67;16.58;;;-1.20;99.90;;;;;;6216161;23;20016;-94
2021/12/11 01:01:05;;;;;;;21.33;15.00;;;-1.20;99.90;;;;;;6220904;23;20054;-92
2021/12/11 01:03:41;;;;;;;18.90;14.88;;;-1.20;99.90;;;;;;6223706;23;20012;-90
2021/12/11 01:06:18;;;;;;;19.25;14.63;;;-1.20;99.90;;;;;;6219799;23;20016;-92
2021/12/11 01:08:52;;;;;;;19.42;14.02;;;-1.10;99.90;;;;;;6220643;23;20031;-89
2021/12/11 01:11:31;;;;;;;20.63;14.95;;;-1.10;99.90;;;;;;6220038;23;20066;-88
2021/12/11 01:14:26;;;;;;;20.58;16.38;;;-1.10;99.90;;;;;;6220071;23;20016;-89
2021/12/11 01:17:17;;;;;;;20.00;14.75;;;-1.10;99.90;;;;;;6219767;23;20092;-87
2021/12/11 01:19:45;;;;;;;19.50;13.85;;;-1.00;99.90;;;;;;6229434;23;20016;-87
2021/12/11 01:22:32;;;;;;;17.95;14.05;;;-1.00;99.90;;;;;;6246423;22;20469;-92
2021/12/11 01:25:02;;;;;;;19.40;14.95;;;-1.00;99.90;;;;;;6219571;23;20012;-87
2021/12/11 01:27:55;;;;;;;21.63;16.13;;;-1.00;99.90;;;;;;6219708;23;20020;-87
2021/12/11 01:31:06;;;;;;;19.73;15.20;;;-1.00;99.90;;;;;;6188739;23;20110;-89
2021/12/11 01:33:43;;;;;;;24.13;15.60;;;-1.00;99.90;;;;;;6164471;23;20027;-94
2021/12/11 01:36:11;;;;;;;19.45;14.55;;;-1.00;99.90;;;;;;6164263;23;20063;-96
2021/12/11 01:38:39;;;;;;;20.60;15.10;;;-0.90;99.90;;;;;;6164268;23;20016;-95
2021/12/11 01:41:12;;;;;;;20.10;15.65;;;-0.90;99.90;;;;;;6164346;23;20112;-96
2021/12/11 01:43:40;;;;;;;20.33;14.63;;;-0.90;99.90;;;;;;6164445;23;20192;-95
2021/12/11 01:46:07;;;;;;;21.85;15.70;;;-0.90;99.90;;;;;;6164506;23;20063;-96
2021/12/11 01:48:36;;;;;;;;;;;-1.00;99.90;;;;;;6164970;23;20017;-95
2021/12/11 01:51:24;;;;;;;22.42;15.50;;;-1.10;99.90;;;;;;6164585;23;20013;-94
2021/12/11 01:53:56;;;;;;;22.48;15.60;;;-1.10;99.90;;;;;;6170285;23;20115;-94
2021/12/11 01:56:26;;;;;;;24.67;16.77;;;-1.10;99.90;;;;;;6169349;23;20050;-95
2021/12/11 01:59:02;;;;;;;25.65;15.63;;;-1.10;99.90;;;;;;6164327;23;20016;-96
2021/12/11 02:06:41;;;;;;;22.55;15.35;;;-1.10;99.90;;;;;;6262318;22;20026;-94
2021/12/11 02:09:20;;;;;;;27.35;18.58;;;-1.10;99.90;;;;;;6250460;22;20081;-94
2021/12/11 02:11:50;;;;;;;25.20;17.52;;;-1.10;99.90;;;;;;6250373;22;20069;-94
2021/12/11 02:14:22;;;;;;;23.88;18.25;;;-1.10;99.90;;;;;;6250319;22;20448;-95
2021/12/11 02:16:54;;;;;;;27.45;18.33;;;-1.10;99.90;;;;;;6250453;22;20065;-94
2021/12/11 02:19:39;;;;;;;25.95;17.48;;;-1.10;99.90;;;;;;6251327;22;20023;-95
2021/12/11 02:22:12;;;;;;;24.67;16.45;;;-1.10;99.90;;;;;;6250480;22;20038;-95
2021/12/11 02:24:51;;;;;;;20.27;15.20;;;-1.10;99.90;;;;;;6250559;22;20018;-95
2021/12/11 02:27:27;;;;;;;21.02;14.82;;;-1.10;99.90;;;;;;6251223;22;20043;-93
2021/12/11 02:30:09;;;;;;;19.90;13.52;;;-1.10;99.90;;;;;;6264608;22;20022;-95
2021/12/11 02:32:42;;;;;;;19.02;14.02;;;-1.10;99.90;;;;;;6252701;22;20416;-96
2021/12/11 02:35:31;;;;;;;18.77;13.75;;;-1.20;99.90;;;;;;6251926;22;20016;-95
2021/12/11 02:38:20;;;;;;;17.77;13.32;;;-1.30;99.90;;;;;;6278320;22;20004;-94
2021/12/11 02:40:55;;;;;;;25.85;14.45;;;-1.30;99.90;;;;;;6277960;22;20004;-94
2021/12/11 02:43:48;;;;;;;19.35;14.30;;;-1.40;99.90;;;;;;6278518;22;20015;-93
2021/12/11 02:46:30;;;;;;;20.05;14.10;;;-1.40;99.90;;;;;;6266450;22;20016;-91
2021/12/11 02:49:11;;;;;;;19.70;14.05;;;-1.40;99.90;;;;;;6251724;22;20016;-91
2021/12/11 02:51:45;;;;;;;21.08;15.27;;;-1.40;99.90;;;;;;6249806;22;20513;-91
2021/12/11 02:54:42;;;;;;;26.15;16.48;;;-1.30;99.90;;;;;;6249865;22;20452;-91
2021/12/11 02:57:21;;;;;;;21.50;15.82;;;-1.20;99.90;;;;;;6274013;22;20047;-91
2021/12/11 02:59:48;;;;;;;22.10;15.70;;;-1.20;99.90;;;;;;6249815;22;20094;-92
2021/12/11 03:02:22;;;;;;;18.15;13.63;;;-1.10;99.90;;;;;;6275780;22;20019;-94
2021/12/11 03:04:53;;;;;;;20.73;15.77;;;-1.10;99.90;;;;;;6249942;22;20016;-93
2021/12/11 03:07:35;;;;;;;22.00;15.60;;;-1.00;99.90;;;;;;6276711;22;20023;-91
2021/12/11 03:10:05;;;;;;;20.75;15.45;;;-1.00;99.90;;;;;;6251817;22;20157;-91
2021/12/11 03:12:31;;;;;;;16.00;12.65;;;-1.00;99.90;;;;;;6251608;22;20018;-91
2021/12/11 03:14:57;;;;;;;19.65;14.48;;;-1.00;99.90;;;;;;6276990;22;20102;-91
2021/12/11 03:17:23;;;;;;;17.85;12.70;;;-1.00;99.90;;;;;;6277212;22;20018;-91
2021/12/11 03:19:51;;;;;;;17.52;12.05;;;-0.90;99.90;;;;;;6277125;22;20026;-91
2021/12/11 03:22:27;;;;;;;17.23;13.27;;;-0.90;99.90;;;;;;6251798;22;20061;-91
2021/12/11 03:25:18;;;;;;;18.30;12.95;;;-0.90;99.90;;;;;;6251654;22;20016;-94
2021/12/11 03:27:43;;;;;;;21.02;13.55;;;-0.90;99.90;;;;;;6275728;22;20467;-92
2021/12/11 03:30:13;;;;;;;16.42;13.00;;;-0.90;99.90;;;;;;6251844;22;20023;-91
2021/12/11 03:32:39;;;;;;;20.88;14.38;;;-0.90;99.90;;;;;;6250592;22;20016;-91
2021/12/11 03:35:08;;;;;;;20.70;14.73;;;-0.90;99.90;;;;;;6250233;22;20016;-92
2021/12/11 03:37:34;;;;;;;17.00;13.32;;;-1.00;99.90;;;;;;6251726;22;20147;-91
2021/12/11 03:40:00;;;;;;;16.83;12.80;;;-0.90;99.90;;;;;;6277002;22;20068;-91
2021/12/11 03:42:32;;;;;;;15.97;12.40;;;-0.90;99.90;;;;;;6276156;22;20016;-92
2021/12/11 03:45:00;;;;;;;17.30;13.15;;;-0.90;99.90;;;;;;6249321;22;20328;-92
2021/12/11 03:47:32;;;;;;;19.15;14.95;;;-1.00;99.90;;;;;;6249403;22;20128;-92
2021/12/11 03:49:58;;;;;;;26.75;15.85;;;-1.00;99.90;;;;;;6250228;22;20459;-95
2021/12/11 03:52:25;;;;;;;25.65;17.65;;;-1.00;99.90;;;;;;6275147;22;20507;-93
2021/12/11 03:54:52;;;;;;;;;;;-1.00;99.90;;;;;;6250424;22;20023;-93
2021/12/11 03:57:22;;;;;;;22.83;16.42;;;-1.00;99.90;;;;;;6250045;22;19994;-94
2021/12/11 03:59:49;;;;;;;26.23;18.17;;;-0.90;99.90;;;;;;6251357;22;20416;-95
2021/12/11 04:02:20;;;;;;;22.08;15.38;;;-0.90;99.90;;;;;;6251402;22;20027;-92
2021/12/11 04:04:56;;;;;;;22.50;16.95;;;-0.80;99.90;;;;;;6251588;22;20012;-94
2021/12/11 04:07:26;;;;;;;19.25;14.75;;;-0.80;99.90;;;;;;6251197;22;20016;-93
2021/12/11 04:09:52;;;;;;;20.50;15.05;;;-0.80;99.90;;;;;;6251152;22;20078;-92
2021/12/11 04:12:20;;;;;;;20.35;14.60;;;-0.80;99.90;;;;;;6276762;22;20090;-92
2021/12/11 04:14:49;;;;;;;21.92;15.45;;;-0.80;99.90;;;;;;6251210;22;20098;-91
2021/12/11 04:17:22;;;;;;;23.63;16.95;;;-0.80;99.90;;;;;;6250938;22;20023;-90
2021/12/11 04:19:51;;;;;;;26.20;17.25;;;-0.80;99.90;;;;;;6250960;22;20015;-90
2021/12/11 04:22:17;;;;;;;24.92;17.70;;;-0.80;99.90;;;;;;6250783;22;20018;-89
2021/12/11 04:24:45;;;;;;;25.58;16.77;;;-0.80;99.90;;;;;;6276384;22;20074;-90
2021/12/11 04:27:13;;;;;;;29.15;19.35;;;-0.80;99.90;;;;;;6250852;22;20094;-90
2021/12/11 04:29:40;;;;;;;28.60;20.15;;;-0.90;99.90;;;;;;6251338;22;20026;-91
2021/12/11 04:32:06;;;;;;;;;;;-0.80;99.90;;;;;;6251539;22;20026;-88
2021/12/11 04:34:34;;;;;;;23.98;17.17;;;-0.80;99.90;;;;;;6250880;22;20233;-91
2021/12/11 04:37:12;;;;;;;24.42;17.98;;;-0.80;99.90;;;;;;6250860;22;20015;-91
2021/12/11 04:39:41;;;;;;;28.33;18.48;;;-0.80;99.90;;;;;;6250975;22;20026;-92
2021/12/11 04:42:20;;;;;;;24.77;17.70;;;-0.80;99.90;;;;;;6276518;22;20038;-92
2021/12/11 04:44:47;;;;;;;24.63;16.83;;;-0.80;99.90;;;;;;6251122;22;20019;-91
2021/12/11 04:47:26;;;;;;;;;;;-0.80;99.90;;;;;;6277075;22;20095;-94
2021/12/11 04:49:58;;;;;;;19.67;13.98;;;-0.90;99.90;;;;;;6251220;22;19915;-91
2021/12/11 05:00:43;;;;;;;19.40;14.80;;;-1.00;99.90;;;;;;6276430;22;20027;-93
2021/12/11 05:05:57;;;;;;;25.65;16.55;;;-1.00;99.90;;;;;;6276053;22;20020;-91
2021/12/11 05:11:11;;;;;;;24.35;17.42;;;-0.90;99.90;;;;;;6276112;22;20022;-94
2021/12/11 05:13:38;;;;;;;26.05;18.73;;;-0.90;99.90;;;;;;6276404;22;20020;-94
2021/12/11 05:16:07;;;;;;;28.88;18.02;;;-0.80;99.90;;;;;;6250492;22;20047;-93
2021/12/11 05:18:36;;;;;;;26.10;18.55;;;-0.80;99.90;;;;;;6250459;22;20441;-94
2021/12/11 05:21:09;;;;;;;31.63;22.50;;;-0.70;99.90;;;;;;6250944;22;20055;-94
2021/12/11 05:23:36;;;;;;;27.60;20.63;;;-0.70;99.90;;;;;;6250531;22;20054;-93
2021/12/11 05:26:02;;;;;;;30.60;20.23;;;-0.70;99.90;;;;;;6250797;22;20019;-94
2021/12/11 05:28:28;;;;;;;36.30;24.02;;;-0.60;99.90;;;;;;6250722;22;20088;-94
2021/12/11 05:30:58;;;;;;;38.28;25.70;;;-0.60;99.90;;;;;;6276159;22;20023;-93
2021/12/11 05:33:24;;;;;;;34.42;23.00;;;-0.60;99.90;;;;;;6250453;22;20022;-94
2021/12/11 05:35:51;;;;;;;45.33;29.77;;;-0.50;99.90;;;;;;6250601;22;20054;-93
2021/12/11 05:38:20;;;;;;;42.28;26.60;;;-0.40;99.90;;;;;;6250543;22;20012;-93
2021/12/11 05:40:51;;;;;;;53.85;32.05;;;-0.40;99.90;;;;;;6250666;22;20015;-92
2021/12/11 05:43:18;;;;;;;51.63;33.85;;;-0.30;99.90;;;;;;6250755;22;20437;-90
2021/12/11 05:45:45;;;;;;;52.75;34.53;;;-0.30;99.90;;;;;;6256870;22;20016;-91
2021/12/11 05:48:11;;;;;;;57.78;35.28;;;-0.20;99.90;;;;;;6251346;22;20022;-93
2021/12/11 05:50:45;;;;;;;53.37;33.37;;;-0.20;99.90;;;;;;6250356;22;20047;-90
2021/12/11 05:53:11;;;;;;;46.92;33.45;;;-0.10;99.90;;;;;;6250635;22;20258;-90
2021/12/11 05:55:39;;;;;;;40.97;28.10;;;-0.10;99.90;;;;;;6252121;22;20011;-92
2021/12/11 05:58:11;;;;;;;46.28;32.60;;;0.00;99.90;;;;;;6277340;22;20019;-91
2021/12/11 06:00:44;;;;;;;44.40;31.35;;;0.00;99.90;;;;;;6271763;22;20398;-89
2021/12/11 06:03:10;;;;;;;44.22;31.77;;;0.00;99.90;;;;;;6277213;22;20003;-90
2021/12/11 06:05:36;;;;;;;36.07;26.33;;;0.10;99.90;;;;;;6277555;22;19999;-91
2021/12/11 06:08:03;;;;;;;39.77;29.10;;;0.10;99.90;;;;;;6285028;22;20030;-91
2021/12/11 06:10:29;;;;;;;43.60;28.33;;;0.10;99.90;;;;;;6254379;22;20035;-92
2021/12/11 06:12:58;;;;;;;44.17;30.90;;;0.10;99.90;;;;;;6276181;22;20012;-92
2021/12/11 06:15:25;;;;;;;36.03;26.58;;;0.00;99.90;;;;;;6250207;22;20012;-92
2021/12/11 06:17:51;;;;;;;40.70;28.63;;;0.10;99.90;;;;;;6250384;22;20391;-92
2021/12/11 06:20:41;;;;;;;39.95;29.15;;;0.10;99.90;;;;;;6275770;22;20050;-93
2021/12/11 06:23:07;;;;;;;51.83;34.47;;;0.10;99.90;;;;;;6274036;22;20011;-92
2021/12/11 06:25:34;;;;;;;41.83;30.25;;;0.10;99.90;;;;;;6250354;22;20065;-95
2021/12/11 06:28:02;;;;;;;44.20;31.20;;;0.10;99.90;;;;;;6275445;22;20043;-94
2021/12/11 06:30:28;;;;;;;42.22;29.48;;;0.10;99.90;;;;;;6250285;22;20047;-93
2021/12/11 06:32:55;;;;;;;51.80;34.08;;;0.10;99.90;;;;;;6275697;22;20026;-91
2021/12/11 06:39:00;;;;;;;43.42;28.75;;;0.20;99.90;;;;;;6277154;22;19976;-85
2021/12/11 06:41:33;;;;;;;44.42;29.05;;;0.20;99.90;;;;;;6278370;22;20012;-85
2021/12/11 06:44:05;;;;;;;44.63;30.48;;;0.20;99.90;;;;;;6278039;22;20050;-86
2021/12/11 06:46:33;;;;;;;36.40;26.13;;;0.20;99.90;;;;;;6277405;22;20091;-88
2021/12/11 06:49:00;;;;;;;38.58;27.65;;;0.10;99.90;;;;;;6277396;22;20091;-84
2021/12/11 06:51:27;;;;;;;40.00;29.45;;;0.10;99.90;;;;;;6277668;22;20012;-87
2021/12/11 06:54:05;;;;;;;43.10;29.85;;;0.10;99.90;;;;;;6276948;22;20016;-84
2021/12/11 06:56:30;;;;;;;43.60;28.80;;;0.10;99.90;;;;;;6250961;22;20011;-84
2021/12/11 06:59:20;;;;;;;39.60;29.13;;;0.00;99.90;;;;;;6277048;22;20093;-90
2021/12/11 07:02:11;;;;;;;52.10;33.10;;;0.00;99.90;;;;;;6251953;22;20012;-89
2021/12/11 07:04:56;;;;;;;56.42;37.28;;;0.00;99.90;;;;;;6279269;22;20019;-89
2021/12/11 07:07:25;;;;;;;51.83;35.78;;;0.00;99.90;;;;;;6251457;22;20026;-90
2021/12/11 07:09:54;;;;;;;48.05;33.05;;;0.00;99.90;;;;;;6252015;22;20020;-89
2021/12/11 07:12:21;;;;;;;44.35;30.65;;;0.00;99.90;;;;;;6251778;22;20020;-89
2021/12/11 07:14:47;;;;;;;;;;;0.00;99.90;;;;;;6277727;22;20460;-89
2021/12/11 07:17:13;;;;;;;46.35;30.13;;;0.00;99.90;;;;;;6252083;22;19915;-92
2021/12/11 07:22:15;;;;;;;54.00;35.78;;;0.00;99.90;;;;;;6248118;22;20024;-93
2021/12/11 07:24:43;;;;;;;;;;;0.00;99.90;;;;;;6197041;23;20022;-94
2021/12/11 07:27:10;;;;;;;46.95;31.92;;;-0.10;99.90;;;;;;6196597;23;19915;-93
2021/12/11 07:29:37;;;;;;;56.75;36.03;;;-0.10;99.90;;;;;;6196524;23;20021;-91
2021/12/11 07:32:04;;;;;;;56.50;36.65;;;-0.10;99.90;;;;;;6196212;23;20020;-92
2021/12/11 07:34:29;;;;;;;47.40;32.30;;;-0.10;99.90;;;;;;6220799;23;20027;-93
